Time;durP1;ratioP1;P1;durP2;ratioP2;P2;SDS_P1;SDS_P2;PMS_P1;PMS_P2;Temp;Humidity;BMP_temperature;BMP_pressure;BME280_temperature;BME280_humidity;BME280_pressure;Samples;Min_cycle;Max_cycle;Signal;HPM_P1;HPM_P2
2022/07/06 00:01:26;;;;;;;;;;;14.40;99.90;;;;;;4983060;28;19995;-65
2022/07/06 00:03:51;;;;;;;;;;;14.40;99.90;;;;;;4997636;28;20036;-65
2022/07/06 00:06:17;;;;;;;;;;;14.40;99.90;;;;;;4994218;28;19922;-64
2022/07/06 00:08:43;;;;;;;;;;;14.40;99.90;;;;;;4998337;28;19936;-64
2022/07/06 00:11:08;;;;;;;;;;;14.20;99.90;;;;;;4993509;28;19960;-64
2022/07/06 00:13:34;;;;;;;;;;;14.30;99.90;;;;;;4999792;28;20351;-64
2022/07/06 00:16:00;;;;;;;;;;;14.30;99.90;;;;;;4994030;28;20325;-64
2022/07/06 00:18:25;;;;;;;;;;;14.20;99.90;;;;;;4998590;28;19976;-64
2022/07/06 00:20:51;;;;;;;;;;;14.20;99.90;;;;;;4994792;28;20011;-65
2022/07/06 00:23:17;;;;;;;;;;;14.10;99.90;;;;;;4993533;28;19996;-65
2022/07/06 00:25:42;;;;;;;;;;;14.10;99.90;;;;;;4999235;28;19913;-64
2022/07/06 00:28:08;;;;;;;;;;;14.20;99.90;;;;;;4996567;28;20329;-64
2022/07/06 00:30:33;;;;;;;;;;;14.20;99.90;;;;;;4995181;28;19941;-64
2022/07/06 00:32:59;;;;;;;;;;;14.50;99.90;;;;;;4983526;28;19964;-64
2022/07/06 00:35:25;;;;;;;;;;;14.60;99.90;;;;;;4996377;28;20352;-64
2022/07/06 00:37:50;;;;;;;;;;;14.50;99.90;;;;;;4997425;28;19918;-64
2022/07/06 00:40:16;;;;;;;;;;;14.40;99.90;;;;;;4994376;28;19917;-64
2022/07/06 00:42:42;;;;;;;;;;;14.30;99.90;;;;;;4999058;28;20400;-64
2022/07/06 00:45:08;;;;;;;;;;;14.40;99.90;;;;;;4995052;28;19914;-64
2022/07/06 00:47:33;;;;;;;;;;;14.40;99.90;;;;;;4996129;28;19960;-64
2022/07/06 00:50:14;;;;;;;;;;;14.30;99.90;;;;;;4998968;28;19914;-64
2022/07/06 00:52:43;;;;;;;;;;;14.40;99.90;;;;;;4994923;28;19920;-64
2022/07/06 00:55:09;;;;;;;;;;;14.40;99.90;;;;;;4989425;28;19914;-64
2022/07/06 00:57:35;;;;;;;;;;;14.40;99.90;;;;;;4998331;28;19920;-64
2022/07/06 01:00:02;;;;;;;;;;;14.40;99.90;;;;;;4996448;28;19914;-64
2022/07/06 01:02:30;;;;;;;;;;;14.40;99.90;;;;;;4997891;28;19914;-64
2022/07/06 01:04:56;;;;;;;;;;;14.30;99.90;;;;;;4997068;28;19972;-64
2022/07/06 01:07:21;;;;;;;;;;;14.20;99.90;;;;;;4993665;28;19918;-64
2022/07/06 01:09:47;;;;;;;;;;;14.10;99.90;;;;;;4998341;28;19914;-64
2022/07/06 01:12:12;;;;;;;;;;;14.10;99.90;;;;;;4992814;28;19918;-64
2022/07/06 01:14:38;;;;;;;;;;;14.10;99.90;;;;;;4989485;28;19922;-64
2022/07/06 01:17:03;;;;;;;;;;;14.10;99.90;;;;;;4993307;28;19918;-64
2022/07/06 01:19:29;;;;;;;;;;;14.00;99.90;;;;;;4981868;28;20052;-64
2022/07/06 01:21:54;;;;;;;;;;;13.90;99.90;;;;;;4991751;28;19913;-64
2022/07/06 01:24:20;;;;;;;;;;;13.80;99.90;;;;;;4995971;28;20352;-64
2022/07/06 01:26:45;;;;;;;;;;;13.80;99.90;;;;;;4994211;28;19916;-64
2022/07/06 01:29:11;;;;;;;;;;;13.70;99.90;;;;;;4998665;28;19909;-64
2022/07/06 01:31:45;;;;;;;;;;;13.50;99.90;;;;;;4995428;28;20031;-64
2022/07/06 01:34:11;;;;;;;;;;;13.50;99.90;;;;;;4994790;28;19934;-64
2022/07/06 01:36:36;;;;;;;;;;;13.40;99.90;;;;;;4995849;28;19921;-64
2022/07/06 01:39:02;;;;;;;;;;;13.30;99.90;;;;;;4992007;28;19925;-64
2022/07/06 01:41:27;;;;;;;;;;;13.40;99.90;;;;;;4995708;28;19910;-64
2022/07/06 01:43:53;;;;;;;;;;;13.40;99.90;;;;;;4991556;28;19917;-64
2022/07/06 01:46:19;;;;;;;;;;;13.50;99.90;;;;;;4997614;28;19964;-64
2022/07/06 01:48:44;;;;;;;;;;;13.60;99.90;;;;;;4997856;28;20362;-64
2022/07/06 01:51:11;;;;;;;;;;;13.80;99.90;;;;;;4996585;28;19960;-64
2022/07/06 01:53:37;;;;;;;;;;;13.70;99.90;;;;;;4992115;28;19917;-64
2022/07/06 01:56:03;;;;;;;;;;;13.90;99.90;;;;;;4993598;28;19913;-64
2022/07/06 01:58:28;;;;;;;;;;;13.80;99.90;;;;;;4997422;28;19914;-64
2022/07/06 02:00:54;;;;;;;;;;;13.80;99.90;;;;;;4996609;28;19928;-64
2022/07/06 02:03:19;;;;;;;;;;;13.80;99.90;;;;;;4996287;28;19921;-64
2022/07/06 02:05:45;;;;;;;;;;;13.80;99.90;;;;;;4996346;28;20342;-64
2022/07/06 02:08:10;;;;;;;;;;;13.70;99.90;;;;;;4996727;28;20400;-64
2022/07/06 02:10:36;;;;;;;;;;;13.60;99.90;;;;;;4989148;28;20357;-64
2022/07/06 02:13:01;;;;;;;;;;;13.60;99.90;;;;;;4998556;28;19921;-64
2022/07/06 02:15:27;;;;;;;;;;;13.50;99.90;;;;;;4997048;28;19913;-64
2022/07/06 02:17:52;;;;;;;;;;;13.40;99.90;;;;;;4994185;28;20438;-64
2022/07/06 02:20:18;;;;;;;;;;;13.40;99.90;;;;;;4977750;28;19942;-64
2022/07/06 02:22:43;;;;;;;;;;;13.40;99.90;;;;;;4995179;28;19922;-64
2022/07/06 02:25:09;;;;;;;;;;;13.20;99.90;;;;;;4987741;28;19925;-64
2022/07/06 02:27:34;;;;;;;;;;;13.20;99.90;;;;;;4994215;28;20005;-64
2022/07/06 02:30:00;;;;;;;;;;;13.30;99.90;;;;;;5001582;28;20373;-64
2022/07/06 02:32:25;;;;;;;;;;;13.40;99.90;;;;;;4997762;28;19975;-64
2022/07/06 02:34:52;;;;;;;;;;;13.40;99.90;;;;;;5000379;28;20037;-64
2022/07/06 02:37:18;;;;;;;;;;;13.30;99.90;;;;;;4999186;28;20432;-64
2022/07/06 02:39:43;;;;;;;;;;;13.20;99.90;;;;;;4996158;28;20177;-64
2022/07/06 02:42:09;;;;;;;;;;;13.20;99.90;;;;;;4994002;28;19997;-64
2022/07/06 02:44:34;;;;;;;;;;;13.00;99.90;;;;;;4999048;28;20050;-64
2022/07/06 02:47:00;;;;;;;;;;;13.00;99.90;;;;;;4991823;28;19921;-64
2022/07/06 02:49:26;;;;;;;;;;;12.90;99.90;;;;;;4995261;28;19937;-64
2022/07/06 02:51:51;;;;;;;;;;;12.80;99.90;;;;;;4999211;28;20365;-64
2022/07/06 02:54:17;;;;;;;;;;;12.70;99.90;;;;;;4997639;28;19996;-64
2022/07/06 02:56:42;;;;;;;;;;;12.70;99.90;;;;;;4998461;28;20373;-64
2022/07/06 02:59:08;;;;;;;;;;;12.60;99.90;;;;;;4990813;28;20344;-64
2022/07/06 03:01:33;;;;;;;;;;;12.40;99.90;;;;;;4982131;28;19916;-64
2022/07/06 03:03:59;;;;;;;;;;;12.40;99.90;;;;;;4995815;28;19917;-64
2022/07/06 03:06:24;;;;;;;;;;;12.40;99.90;;;;;;4998745;28;20434;-64
2022/07/06 03:08:50;;;;;;;;;;;12.40;99.90;;;;;;4994106;28;20405;-64
2022/07/06 03:11:15;;;;;;;;;;;12.20;99.90;;;;;;4998419;28;19972;-64
2022/07/06 03:13:41;;;;;;;;;;;12.20;99.90;;;;;;4993513;28;20452;-64
2022/07/06 03:16:06;;;;;;;;;;;12.00;99.90;;;;;;4994557;28;19917;-64
2022/07/06 03:18:31;;;;;;;;;;;11.90;99.90;;;;;;4988765;28;19921;-64
2022/07/06 03:20:57;;;;;;;;;;;11.60;99.90;;;;;;4979005;28;19993;-64
2022/07/06 03:23:22;;;;;;;;;;;11.50;99.90;;;;;;4991447;28;20377;-64
2022/07/06 03:25:48;;;;;;;;;;;11.60;99.90;;;;;;4987699;28;19916;-64
2022/07/06 03:28:14;;;;;;;;;;;11.40;99.90;;;;;;4988530;28;20027;-64
2022/07/06 03:30:39;;;;;;;;;;;11.40;99.90;;;;;;4995833;28;20356;-64
2022/07/06 03:33:05;;;;;;;;;;;11.50;99.90;;;;;;4990793;28;19917;-64
2022/07/06 03:35:30;;;;;;;;;;;11.40;99.90;;;;;;4988537;28;19921;-64
2022/07/06 03:37:56;;;;;;;;;;;11.50;99.90;;;;;;4995772;28;20285;-64
2022/07/06 03:40:21;;;;;;;;;;;11.70;99.90;;;;;;4989223;28;19921;-64
2022/07/06 03:42:47;;;;;;;;;;;11.80;99.90;;;;;;4995196;28;19918;-64
2022/07/06 03:45:12;;;;;;;;;;;11.90;99.90;;;;;;4995755;28;19917;-64
2022/07/06 03:47:38;;;;;;;;;;;11.90;99.90;;;;;;4994171;28;20339;-64
2022/07/06 03:50:03;;;;;;;;;;;12.00;99.90;;;;;;4978360;28;19997;-64
2022/07/06 03:52:29;;;;;;;;;;;12.00;99.90;;;;;;4997932;28;19921;-64
2022/07/06 03:54:55;;;;;;;;;;;12.10;99.90;;;;;;4995848;28;20008;-64
2022/07/06 03:57:21;;;;;;;;;;;12.10;99.90;;;;;;5000652;28;19916;-64
2022/07/06 03:59:47;;;;;;;;;;;12.20;99.90;;;;;;4991051;28;20219;-64
2022/07/06 04:02:12;;;;;;;;;;;12.10;99.90;;;;;;4982808;28;20449;-64
2022/07/06 04:04:38;;;;;;;;;;;11.90;99.90;;;;;;4996699;28;20190;-64
2022/07/06 04:07:03;;;;;;;;;;;12.00;99.90;;;;;;4996158;28;20363;-64
2022/07/06 04:09:28;;;;;;;;;;;11.90;99.90;;;;;;4995009;28;19972;-64
2022/07/06 04:11:54;;;;;;;;;;;12.00;99.90;;;;;;4995214;28;19936;-63
2022/07/06 04:14:19;;;;;;;;;;;12.10;99.90;;;;;;4995550;28;19922;-65
2022/07/06 04:16:45;;;;;;;;;;;12.20;99.90;;;;;;4997024;28;19969;-64
2022/07/06 04:19:10;;;;;;;;;;;12.40;99.90;;;;;;5000224;28;20078;-64
2022/07/06 04:21:36;;;;;;;;;;;12.50;99.90;;;;;;4997841;28;20277;-64
2022/07/06 04:24:01;;;;;;;;;;;12.70;99.90;;;;;;4995614;28;19921;-64
2022/07/06 04:26:27;;;;;;;;;;;12.90;99.90;;;;;;4998123;28;20286;-64
2022/07/06 04:28:53;;;;;;;;;;;13.10;99.90;;;;;;4984181;28;19922;-64
2022/07/06 04:31:18;;;;;;;;;;;13.20;99.90;;;;;;4997265;28;20068;-64
2022/07/06 04:33:44;;;;;;;;;;;13.40;99.90;;;;;;4991245;28;19964;-64
2022/07/06 04:36:09;;;;;;;;;;;13.50;99.90;;;;;;4995850;28;20004;-64
2022/07/06 04:38:35;;;;;;;;;;;13.60;99.90;;;;;;4995692;28;19918;-64
2022/07/06 04:41:01;;;;;;;;;;;13.70;99.90;;;;;;4990795;28;19914;-64
2022/07/06 04:43:26;;;;;;;;;;;13.70;99.90;;;;;;4995036;28;20464;-64
2022/07/06 04:45:52;;;;;;;;;;;13.60;99.90;;;;;;4999410;28;19924;-64
2022/07/06 04:48:17;;;;;;;;;;;13.80;99.90;;;;;;4975472;28;19918;-64
2022/07/06 04:50:43;;;;;;;;;;;13.80;99.90;;;;;;4998114;28;20313;-64
2022/07/06 04:53:08;;;;;;;;;;;13.80;99.90;;;;;;4999189;28;19916;-64
2022/07/06 04:55:34;;;;;;;;;;;13.70;99.90;;;;;;4998108;28;19917;-64
2022/07/06 04:57:59;;;;;;;;;;;13.50;99.90;;;;;;4999332;28;19928;-63
2022/07/06 05:00:25;;;;;;;;;;;13.50;99.90;;;;;;4995833;28;19963;-63
2022/07/06 05:02:51;;;;;;;;;;;13.40;99.90;;;;;;4992426;28;19918;-64
2022/07/06 05:05:16;;;;;;;;;;;13.40;99.90;;;;;;4990539;28;20027;-64
2022/07/06 05:07:42;;;;;;;;;;;13.30;99.90;;;;;;4990658;28;20278;-68
2022/07/06 05:10:08;;;;;;;;;;;13.30;99.90;;;;;;4991503;28;19918;-64
2022/07/06 05:12:34;;;;;;;;;;;13.30;99.90;;;;;;4977704;28;19959;-64
2022/07/06 05:15:00;;;;;;;;;;;13.30;99.90;;;;;;4978216;28;19970;-64
2022/07/06 05:17:26;;;;;;;;;;;13.20;99.90;;;;;;4995084;28;19910;-64
2022/07/06 05:19:52;;;;;;;;;;;13.20;99.90;;;;;;4991532;28;19909;-64
2022/07/06 05:22:17;;;;;;;;;;;13.20;99.90;;;;;;4990976;28;19925;-65
2022/07/06 05:24:43;;;;;;;;;;;13.30;99.90;;;;;;4991467;28;19910;-64
2022/07/06 05:27:08;;;;;;;;;;;13.40;99.90;;;;;;4992357;28;19928;-64
2022/07/06 05:29:34;;;;;;;;;;;13.50;99.90;;;;;;4998462;28;19918;-64
2022/07/06 05:31:59;;;;;;;;;;;13.70;99.90;;;;;;4979215;28;19925;-64
2022/07/06 05:34:25;;;;;;;;;;;13.80;99.90;;;;;;4989096;28;19918;-64
2022/07/06 05:36:50;;;;;;;;;;;13.80;99.90;;;;;;4998447;28;19950;-63
2022/07/06 05:39:19;;;;;;;;;;;13.70;99.90;;;;;;4993126;28;19925;-64
2022/07/06 05:41:45;;;;;;;;;;;13.90;99.90;;;;;;4996291;28;19977;-64
2022/07/06 05:44:11;;;;;;;;;;;13.90;99.90;;;;;;4977373;28;20278;-64
2022/07/06 05:46:36;;;;;;;;;;;13.90;99.90;;;;;;4988924;28;19914;-64
2022/07/06 05:51:46;;;;;;;;;;;14.10;99.90;;;;;;4992256;28;20291;-64
2022/07/06 05:54:11;;;;;;;;;;;14.30;99.90;;;;;;4978274;28;19914;-64
2022/07/06 05:56:37;;;;;;;;;;;14.40;99.90;;;;;;4990521;28;19996;-64
2022/07/06 05:59:02;;;;;;;;;;;14.50;99.90;;;;;;4984146;28;20306;-64
2022/07/06 06:01:28;;;;;;;;;;;14.40;99.90;;;;;;4986813;28;20008;-64
2022/07/06 06:03:53;;;;;;;;;;;14.40;99.90;;;;;;4968869;28;19941;-64
2022/07/06 06:06:19;;;;;;;;;;;14.50;99.90;;;;;;4984205;28;20477;-64
2022/07/06 06:08:44;;;;;;;;;;;14.50;99.90;;;;;;4986001;28;20250;-64
2022/07/06 06:11:10;;;;;;;;;;;14.50;99.90;;;;;;4990211;28;20310;-64
2022/07/06 06:13:35;;;;;;;;;;;14.60;99.90;;;;;;4985086;28;21044;-64
2022/07/06 06:16:01;;;;;;;;;;;14.50;99.90;;;;;;4975187;28;19914;-64
2022/07/06 06:18:26;;;;;;;;;;;14.70;99.90;;;;;;4996829;28;20381;-64
2022/07/06 06:20:52;;;;;;;;;;;14.80;99.90;;;;;;4978191;28;19944;-64
2022/07/06 06:23:18;;;;;;;;;;;15.10;99.90;;;;;;4991313;28;20023;-64
2022/07/06 06:25:43;;;;;;;;;;;15.10;99.90;;;;;;4998014;28;20250;-64
2022/07/06 06:28:10;;;;;;;;;;;15.20;99.90;;;;;;4995096;28;20007;-64
2022/07/06 06:30:35;;;;;;;;;;;15.40;99.90;;;;;;4998905;28;19993;-64
2022/07/06 06:33:27;;;;;;;;;;;15.50;99.90;;;;;;4982471;28;20012;-64
2022/07/06 06:35:53;;;;;;;;;;;15.70;99.90;;;;;;4984699;28;20579;-64
2022/07/06 06:38:20;;;;;;;;;;;15.90;99.90;;;;;;4991866;28;20324;-64
2022/07/06 06:40:46;;;;;;;;;;;15.90;99.90;;;;;;4984571;28;20320;-64
2022/07/06 06:43:11;;;;;;;;;;;15.70;99.90;;;;;;4989544;28;19933;-64
2022/07/06 06:45:37;;;;;;;;;;;15.80;99.90;;;;;;4986778;28;20234;-64
2022/07/06 06:48:03;;;;;;;;;;;16.10;99.90;;;;;;4992467;28;19960;-64
2022/07/06 06:50:28;;;;;;;;;;;16.20;99.90;;;;;;4991743;28;19913;-64
2022/07/06 06:52:54;;;;;;;;;;;16.30;99.90;;;;;;4976387;28;19913;-64
2022/07/06 06:55:19;;;;;;;;;;;16.60;99.90;;;;;;4991624;28;19918;-64
2022/07/06 06:57:45;;;;;;;;;;;16.80;99.90;;;;;;4992951;28;19914;-65
2022/07/06 07:00:11;;;;;;;;;;;16.70;99.90;;;;;;4992870;28;19933;-64
2022/07/06 07:02:38;;;;;;;;;;;16.60;99.90;;;;;;4990277;28;19918;-64
2022/07/06 07:05:04;;;;;;;;;;;16.50;99.90;;;;;;4984974;28;19936;-64
2022/07/06 07:07:29;;;;;;;;;;;16.80;99.90;;;;;;4987249;28;20301;-64
2022/07/06 07:09:55;;;;;;;;;;;16.70;99.90;;;;;;4981011;28;19918;-64
2022/07/06 07:12:20;;;;;;;;;;;16.60;99.90;;;;;;4981372;28;20513;-64
2022/07/06 07:14:47;;;;;;;;;;;16.50;99.90;;;;;;4985297;28;19925;-64
2022/07/06 07:17:12;;;;;;;;;;;16.60;99.90;;;;;;4989557;28;19918;-64
2022/07/06 07:19:38;;;;;;;;;;;16.50;99.90;;;;;;4985061;28;19925;-64
2022/07/06 07:22:03;;;;;;;;;;;16.40;99.90;;;;;;4995663;28;20432;-64
2022/07/06 07:24:29;;;;;;;;;;;16.40;99.90;;;;;;4991989;28;19914;-64
2022/07/06 07:26:55;;;;;;;;;;;16.30;99.90;;;;;;4995159;28;20246;-64
2022/07/06 07:29:20;;;;;;;;;;;16.80;99.90;;;;;;4990679;28;19918;-64
2022/07/06 07:31:46;;;;;;;;;;;17.10;99.90;;;;;;4987977;28;20000;-65
2022/07/06 07:34:11;;;;;;;;;;;17.20;99.90;;;;;;4998233;28;20009;-64
2022/07/06 07:36:37;;;;;;;;;;;17.30;99.90;;;;;;4989755;28;19940;-64
2022/07/06 07:39:03;;;;;;;;;;;17.10;99.90;;;;;;4996191;28;19921;-64
2022/07/06 07:41:28;;;;;;;;;;;17.20;99.90;;;;;;4996612;28;19966;-64
2022/07/06 07:43:54;;;;;;;;;;;16.90;99.90;;;;;;4984425;28;20033;-64
2022/07/06 07:46:20;;;;;;;;;;;17.00;99.90;;;;;;4997449;28;19920;-64
2022/07/06 07:48:45;;;;;;;;;;;16.90;99.90;;;;;;4992203;28;20318;-64
2022/07/06 07:51:11;;;;;;;;;;;16.80;99.90;;;;;;4998934;28;19963;-64
2022/07/06 07:53:36;;;;;;;;;;;17.20;99.90;;;;;;5000807;28;19921;-64
2022/07/06 07:56:02;;;;;;;;;;;17.50;99.90;;;;;;4991761;28;20008;-70
2022/07/06 08:00:08;;;;;;;;;;;18.70;99.90;;;;;;5075281;27;19920;-66
2022/07/06 08:02:33;;;;;;;;;;;19.10;99.90;;;;;;5078344;28;20291;-66
2022/07/06 08:04:59;;;;;;;;;;;18.70;99.90;;;;;;5074524;28;19982;-66
2022/07/06 08:07:24;;;;;;;;;;;18.40;99.90;;;;;;5074109;28;19951;-66
2022/07/06 08:09:50;;;;;;;;;;;17.90;99.90;;;;;;5075499;28;19934;-65
2022/07/06 08:12:15;;;;;;;;;;;17.80;99.90;;;;;;5069323;28;19917;-65
2022/07/06 08:14:41;;;;;;;;;;;17.90;99.90;;;;;;5072158;28;19912;-65
2022/07/06 08:17:06;;;;;;;;;;;17.80;99.90;;;;;;5066711;28;19944;-66
2022/07/06 08:19:32;;;;;;;;;;;18.40;99.90;;;;;;5070017;28;19920;-65
2022/07/06 08:21:57;;;;;;;;;;;18.60;99.90;;;;;;5070259;28;19912;-65
2022/07/06 08:24:23;;;;;;;;;;;18.30;99.90;;;;;;5074676;28;19973;-66
2022/07/06 08:26:48;;;;;;;;;;;18.50;99.90;;;;;;5070353;28;19908;-66
2022/07/06 08:29:14;;;;;;;;;;;18.80;99.90;;;;;;5071447;28;20465;-65
2022/07/06 08:31:39;;;;;;;;;;;18.80;99.90;;;;;;5072774;28;20442;-65
2022/07/06 08:34:05;;;;;;;;;;;18.70;99.90;;;;;;5065211;28;19916;-64
2022/07/06 08:36:30;;;;;;;;;;;19.20;99.90;;;;;;5067864;28;19919;-64
2022/07/06 08:38:56;;;;;;;;;;;19.60;99.90;;;;;;5064472;28;19917;-64
2022/07/06 08:41:23;;;;;;;;;;;19.40;99.90;;;;;;5071379;28;20343;-64
2022/07/06 08:43:50;;;;;;;;;;;19.50;99.90;;;;;;5068102;28;19916;-64
2022/07/06 08:46:15;;;;;;;;;;;19.00;99.90;;;;;;5065772;28;19974;-64
2022/07/06 08:48:41;;;;;;;;;;;18.80;99.90;;;;;;5063777;28;20016;-65
2022/07/06 08:51:07;;;;;;;;;;;18.50;99.90;;;;;;5064148;28;19912;-64
2022/07/06 08:53:33;;;;;;;;;;;18.30;99.90;;;;;;5069077;28;19944;-64
2022/07/06 08:55:59;;;;;;;;;;;18.20;99.90;;;;;;5073316;28;19912;-64
2022/07/06 08:58:26;;;;;;;;;;;17.90;99.90;;;;;;5078834;28;20407;-64
2022/07/06 09:00:52;;;;;;;;;;;17.60;99.90;;;;;;5089335;28;19920;-64
2022/07/06 09:03:19;;;;;;;;;;;17.50;99.90;;;;;;5091849;28;20297;-64
2022/07/06 09:05:45;;;;;;;;;;;17.40;99.90;;;;;;5085228;28;20144;-64
2022/07/06 09:08:11;;;;;;;;;;;17.60;99.90;;;;;;5093624;28;20495;-64
2022/07/06 09:10:37;;;;;;;;;;;17.80;99.90;;;;;;5078164;28;20388;-64
2022/07/06 09:13:06;;;;;;;;;;;17.80;99.90;;;;;;5075073;28;19912;-64
2022/07/06 09:15:33;;;;;;;;;;;18.10;99.90;;;;;;5073784;28;19919;-64
2022/07/06 09:17:58;;;;;;;;;;;18.70;99.90;;;;;;5075093;28;19920;-64
2022/07/06 09:20:24;;;;;;;;;;;18.60;99.90;;;;;;5082402;28;19922;-64
2022/07/06 09:22:49;;;;;;;;;;;18.90;99.90;;;;;;5072407;28;19967;-64
2022/07/06 09:25:15;;;;;;;;;;;18.90;99.90;;;;;;5070444;28;19955;-64
2022/07/06 09:27:42;;;;;;;;;;;18.70;99.90;;;;;;5080921;28;19999;-64
2022/07/06 09:30:09;;;;;;;;;;;18.50;99.90;;;;;;5076895;28;19912;-64
2022/07/06 09:32:41;;;;;;;;;;;18.80;99.90;;;;;;5069460;28;19912;-64
2022/07/06 09:35:07;;;;;;;;;;;19.20;99.90;;;;;;5075702;28;19951;-64
2022/07/06 09:37:32;;;;;;;;;;;19.30;99.90;;;;;;5071183;28;19960;-64
2022/07/06 09:39:58;;;;;;;;;;;19.30;99.90;;;;;;5071459;28;19913;-65
2022/07/06 09:42:24;;;;;;;;;;;19.60;99.90;;;;;;5072209;28;19939;-64
2022/07/06 09:44:49;;;;;;;;;;;19.80;99.90;;;;;;5077728;28;19915;-64
2022/07/06 09:47:15;;;;;;;;;;;19.80;99.50;;;;;;5076390;28;19920;-64
2022/07/06 09:49:40;;;;;;;;;;;20.00;99.10;;;;;;5079031;28;20222;-64
2022/07/06 09:52:07;;;;;;;;;;;19.90;98.10;;;;;;5072375;28;20011;-64
2022/07/06 09:54:34;;;;;;;;;;;19.60;99.50;;;;;;5072216;28;19916;-64
2022/07/06 09:57:00;;;;;;;;;;;20.00;98.70;;;;;;5072748;28;20312;-64
2022/07/06 09:59:27;;;;;;;;;;;20.30;97.40;;;;;;5078342;28;19925;-64
2022/07/06 10:01:54;;;;;;;;;;;20.60;97.70;;;;;;5073703;28;19916;-64
2022/07/06 10:04:20;;;;;;;;;;;21.30;97.50;;;;;;5079820;28;19912;-64
2022/07/06 10:06:46;;;;;;;;;;;22.30;95.90;;;;;;5069683;28;19912;-64
2022/07/06 10:09:12;;;;;;;;;;;22.50;94.50;;;;;;5071372;28;20334;-64
2022/07/06 10:11:39;;;;;;;;;;;22.90;93.90;;;;;;5070975;28;20398;-64
2022/07/06 10:14:05;;;;;;;;;;;22.80;93.10;;;;;;5068786;28;20545;-64
2022/07/06 10:16:31;;;;;;;;;;;22.00;94.00;;;;;;5077418;28;20673;-64
2022/07/06 10:18:57;;;;;;;;;;;21.30;94.60;;;;;;5077787;28;19923;-64
2022/07/06 10:21:23;;;;;;;;;;;20.80;95.30;;;;;;5077151;28;20023;-64
2022/07/06 10:23:49;;;;;;;;;;;20.90;95.20;;;;;;5073766;28;20407;-64
2022/07/06 10:26:16;;;;;;;;;;;21.10;95.10;;;;;;5074386;28;20022;-64
2022/07/06 10:28:42;;;;;;;;;;;20.80;95.20;;;;;;5073301;28;19920;-64
2022/07/06 10:31:08;;;;;;;;;;;20.60;95.60;;;;;;5077567;28;20351;-64
2022/07/06 10:33:34;;;;;;;;;;;20.40;96.20;;;;;;5071028;28;19951;-65
2022/07/06 10:35:59;;;;;;;;;;;20.40;96.80;;;;;;5079519;28;20346;-65
2022/07/06 10:38:32;;;;;;;;;;;21.50;95.90;;;;;;5075008;28;19927;-65
2022/07/06 10:41:02;;;;;;;;;;;21.60;94.00;;;;;;5072807;28;20299;-65
2022/07/06 10:43:31;;;;;;;;;;;21.90;94.00;;;;;;5075566;28;19916;-64
2022/07/06 10:45:56;;;;;;;;;;;22.40;93.30;;;;;;5079045;28;19912;-64
2022/07/06 10:48:22;;;;;;;;;;;22.30;92.50;;;;;;5074169;28;20449;-64
2022/07/06 10:50:50;;;;;;;;;;;22.10;93.40;;;;;;5074768;28;20173;-65
2022/07/06 10:53:25;;;;;;;;;;;22.30;92.40;;;;;;5073775;28;19919;-65
2022/07/06 10:55:52;;;;;;;;;;;22.10;92.70;;;;;;5071587;28;20367;-65
2022/07/06 10:58:37;;;;;;;;;;;21.20;93.60;;;;;;5072411;28;20089;-64
2022/07/06 11:01:03;;;;;;;;;;;20.60;95.10;;;;;;5075221;28;19937;-65
2022/07/06 11:03:29;;;;;;;;;;;20.00;95.90;;;;;;5072533;28;20310;-65
2022/07/06 11:06:21;;;;;;;;;;;20.10;96.50;;;;;;5075895;28;20340;-65
2022/07/06 11:08:54;;;;;;;;;;;19.90;96.60;;;;;;5074562;28;20428;-65
2022/07/06 11:11:41;;;;;;;;;;;20.10;96.40;;;;;;5070544;28;19916;-64
2022/07/06 11:14:06;;;;;;;;;;;20.60;95.30;;;;;;5072676;28;19916;-65
2022/07/06 11:28:47;;;;;;;;;;;23.70;91.00;;;;;;5061532;28;19920;-65
2022/07/06 11:31:13;;;;;;;;;;;23.10;91.10;;;;;;5071483;28;20016;-65
2022/07/06 11:33:39;;;;;;;;;;;22.70;91.80;;;;;;5073339;28;19915;-65
2022/07/06 11:36:31;;;;;;;;;;;22.80;91.70;;;;;;5073724;28;20676;-65
2022/07/06 11:38:57;;;;;;;;;;;22.80;91.60;;;;;;5072394;28;20286;-65
2022/07/06 11:41:22;;;;;;;;;;;22.10;91.80;;;;;;5076964;28;19912;-65
2022/07/06 11:43:51;;;;;;;;;;;21.20;92.90;;;;;;5074838;28;20355;-65
2022/07/06 11:46:22;;;;;;;;;;;21.30;92.60;;;;;;5074633;28;19916;-65
2022/07/06 11:48:48;;;;;;;;;;;21.00;93.00;;;;;;5078491;28;19915;-65
2022/07/06 11:51:15;;;;;;;;;;;20.70;93.10;;;;;;5070511;28;20511;-65
2022/07/06 11:53:44;;;;;;;;;;;21.10;92.90;;;;;;5074355;28;19912;-65
2022/07/06 11:56:10;;;;;;;;;;;21.10;92.90;;;;;;5077945;28;19912;-65
2022/07/06 11:58:36;;;;;;;;;;;20.90;92.90;;;;;;5081557;28;19920;-64
2022/07/06 12:01:03;;;;;;;;;;;21.50;92.90;;;;;;5071565;28;19923;-65
2022/07/06 12:03:28;;;;;;;;;;;23.50;91.10;;;;;;5071814;28;20007;-65
2022/07/06 12:05:54;;;;;;;;;;;23.70;90.00;;;;;;5073273;28;20015;-65
2022/07/06 12:08:19;;;;;;;;;;;23.10;90.40;;;;;;5073579;28;19926;-65
2022/07/06 12:10:45;;;;;;;;;;;22.30;90.90;;;;;;5072363;28;19917;-65
2022/07/06 12:13:10;;;;;;;;;;;22.20;91.10;;;;;;5075682;28;20308;-65
2022/07/06 12:15:36;;;;;;;;;;;22.80;90.80;;;;;;5075783;28;19991;-65
2022/07/06 12:18:01;;;;;;;;;;;24.40;87.40;;;;;;5070018;28;19912;-65
2022/07/06 12:20:27;;;;;;;;;;;24.80;85.20;;;;;;5075437;28;20354;-65
2022/07/06 12:23:02;;;;;;;;;;;24.50;86.10;;;;;;5078692;28;19912;-65
2022/07/06 12:25:31;;;;;;;;;;;25.30;87.50;;;;;;5079423;28;20368;-65
2022/07/06 12:27:57;;;;;;;;;;;26.20;84.70;;;;;;5076531;28;19909;-65
2022/07/06 12:30:23;;;;;;;;;;;24.90;83.60;;;;;;5073637;28;20034;-65
2022/07/06 12:33:08;;;;;;;;;;;25.20;83.70;;;;;;5072267;28;20003;-65
2022/07/06 12:35:34;;;;;;;;;;;25.20;83.20;;;;;;5063918;28;19911;-65
2022/07/06 12:38:00;;;;;;;;;;;25.00;83.50;;;;;;5076559;28;19920;-65
2022/07/06 12:40:29;;;;;;;;;;;26.30;81.80;;;;;;5076351;28;19977;-65
2022/07/06 12:42:55;;;;;;;;;;;26.10;79.70;;;;;;5075181;28;19973;-65
2022/07/06 12:45:25;;;;;;;;;;;26.50;78.40;;;;;;5073668;28;19912;-65
2022/07/06 12:47:58;;;;;;;;;;;25.50;79.60;;;;;;5084456;28;19908;-65
2022/07/06 12:50:30;;;;;;;;;;;24.10;81.90;;;;;;5079935;28;20517;-65
2022/07/06 12:52:56;;;;;;;;;;;23.40;83.10;;;;;;5076798;28;20007;-65
2022/07/06 12:55:25;;;;;;;;;;;22.90;85.20;;;;;;5077033;28;20004;-65
2022/07/06 12:57:51;;;;;;;;;;;23.40;86.10;;;;;;5078085;28;19998;-65
2022/07/06 13:00:18;;;;;;;;;;;24.80;82.90;;;;;;5070944;28;19996;-66
2022/07/06 13:02:44;;;;;;;;;;;25.20;81.70;;;;;;5079456;28;19916;-65
2022/07/06 13:05:14;;;;;;;;;;;26.30;80.40;;;;;;5076126;28;19965;-65
2022/07/06 13:07:44;;;;;;;;;;;26.40;79.80;;;;;;5081100;28;19908;-65
2022/07/06 13:10:10;;;;;;;;;;;27.10;79.10;;;;;;5078766;28;20355;-65
2022/07/06 13:12:36;;;;;;;;;;;28.30;76.20;;;;;;5076428;28;19919;-65
2022/07/06 13:15:02;;;;;;;;;;;29.40;74.50;;;;;;5079720;28;19919;-66
2022/07/06 13:17:28;;;;;;;;;;;28.40;74.10;;;;;;5076346;28;19912;-65
2022/07/06 13:19:53;;;;;;;;;;;27.70;75.50;;;;;;5081754;28;19999;-65
2022/07/06 13:22:19;;;;;;;;;;;26.50;74.30;;;;;;5071992;28;19920;-65
2022/07/06 13:24:44;;;;;;;;;;;25.80;76.00;;;;;;5080350;28;19920;-65
2022/07/06 13:27:10;;;;;;;;;;;25.00;77.60;;;;;;5073777;28;19912;-65
2022/07/06 13:29:36;;;;;;;;;;;26.20;77.50;;;;;;5080421;28;19908;-65
2022/07/06 13:32:02;;;;;;;;;;;27.40;75.30;;;;;;5075064;28;20398;-65
2022/07/06 13:34:28;;;;;;;;;;;27.30;74.80;;;;;;5081844;28;19908;-65
2022/07/06 13:36:53;;;;;;;;;;;26.60;74.60;;;;;;5081963;28;19943;-65
2022/07/06 13:39:19;;;;;;;;;;;27.80;74.60;;;;;;5073178;28;19977;-66
2022/07/06 13:41:45;;;;;;;;;;;29.60;72.00;;;;;;5077134;28;19913;-65
2022/07/06 13:44:11;;;;;;;;;;;29.70;70.40;;;;;;5077115;28;19919;-66
2022/07/06 13:46:37;;;;;;;;;;;30.70;69.70;;;;;;5084572;28;20341;-66
2022/07/06 13:49:04;;;;;;;;;;;31.30;69.00;;;;;;5079942;28;19912;-65
2022/07/06 13:51:31;;;;;;;;;;;28.70;69.30;;;;;;5079114;28;19915;-65
2022/07/06 13:53:56;;;;;;;;;;;28.30;70.10;;;;;;5075535;28;19943;-65
2022/07/06 13:56:22;;;;;;;;;;;27.00;71.50;;;;;;5074311;28;20427;-65
2022/07/06 13:58:48;;;;;;;;;;;27.40;71.40;;;;;;5078158;28;20007;-66
2022/07/06 14:01:13;;;;;;;;;;;27.40;71.00;;;;;;5077768;28;19939;-66
2022/07/06 14:03:39;;;;;;;;;;;28.80;69.30;;;;;;5084090;28;19962;-66
2022/07/06 14:06:07;;;;;;;;;;;29.10;68.30;;;;;;5079042;28;20028;-66
2022/07/06 14:08:33;;;;;;;;;;;29.70;67.60;;;;;;5078303;28;19917;-65
2022/07/06 14:10:59;;;;;;;;;;;28.50;67.30;;;;;;5089637;28;19912;-65
2022/07/06 14:13:25;;;;;;;;;;;27.40;69.20;;;;;;5074662;28;20130;-65
2022/07/06 14:15:50;;;;;;;;;;;25.70;70.60;;;;;;5078223;28;19917;-65
2022/07/06 14:18:17;;;;;;;;;;;25.10;71.90;;;;;;5084034;28;20419;-65
2022/07/06 14:20:43;;;;;;;;;;;24.90;73.30;;;;;;5074420;28;19913;-65
2022/07/06 14:23:09;;;;;;;;;;;25.00;73.80;;;;;;5076370;28;19908;-65
2022/07/06 14:25:34;;;;;;;;;;;24.70;74.00;;;;;;5074670;28;19923;-65
2022/07/06 14:28:01;;;;;;;;;;;25.40;74.00;;;;;;5075255;28;19912;-66